sensor_id;sensor_type;location;lat;lon;timestamp;pressure;altitude;pressure_sealevel;temperature;humidity
75617;BME280;64200;55.426;37.758;2023-07-20T00:04:03;97969.06;;;13.74;69.45
75617;BME280;64200;55.426;37.758;2023-07-20T00:09:03;97975.50;;;13.68;69.40
75617;BME280;64200;55.426;37.758;2023-07-20T00:14:05;97993.59;;;13.67;69.87
75617;BME280;64200;55.426;37.758;2023-07-20T00:19:06;97983.75;;;13.61;69.92
75617;BME280;64200;55.426;37.758;2023-07-20T00:24:07;97992.22;;;13.55;69.96
75617;BME280;64200;55.426;37.758;2023-07-20T00:29:07;97989.50;;;13.49;69.94
75617;BME280;64200;55.426;37.758;2023-07-20T00:34:08;97998.00;;;13.38;71.02
75617;BME280;64200;55.426;37.758;2023-07-20T00:39:08;98002.38;;;13.33;71.01
75617;BME280;64200;55.426;37.758;2023-07-20T00:44:09;97993.97;;;13.33;70.87
75617;BME280;64200;55.426;37.758;2023-07-20T00:49:09;97995.03;;;13.30;71.41
75617;BME280;64200;55.426;37.758;2023-07-20T00:54:10;97992.53;;;13.27;71.45
75617;BME280;64200;55.426;37.758;2023-07-20T00:59:11;97986.41;;;13.28;71.22
75617;BME280;64200;55.426;37.758;2023-07-20T01:04:12;97992.53;;;13.27;71.34
75617;BME280;64200;55.426;37.758;2023-07-20T01:09:20;97994.09;;;13.22;71.45
75617;BME280;64200;55.426;37.758;2023-07-20T01:14:26;97984.47;;;13.17;71.62
75617;BME280;64200;55.426;37.758;2023-07-20T01:19:27;97983.44;;;13.21;71.47
75617;BME280;64200;55.426;37.758;2023-07-20T01:35:06;97984.72;;;13.20;71.64
75617;BME280;64200;55.426;37.758;2023-07-20T01:40:09;97984.75;;;13.14;72.25
75617;BME280;64200;55.426;37.758;2023-07-20T01:45:10;97997.97;;;13.19;72.10
75617;BME280;64200;55.426;37.758;2023-07-20T01:50:10;97996.19;;;13.16;72.44
75617;BME280;64200;55.426;37.758;2023-07-20T01:55:11;98002.56;;;13.16;72.71
75617;BME280;64200;55.426;37.758;2023-07-20T02:00:12;98002.03;;;13.18;72.77
75617;BME280;64200;55.426;37.758;2023-07-20T02:05:12;98004.78;;;13.24;72.54
75617;BME280;64200;55.426;37.758;2023-07-20T02:10:13;98004.09;;;13.17;72.78
75617;BME280;64200;55.426;37.758;2023-07-20T02:15:14;98003.31;;;13.17;73.04
75617;BME280;64200;55.426;37.758;2023-07-20T02:20:16;98006.28;;;13.25;72.71
75617;BME280;64200;55.426;37.758;2023-07-20T02:25:18;98009.56;;;13.29;72.73
75617;BME280;64200;55.426;37.758;2023-07-20T02:30:18;98004.19;;;13.31;72.77
75617;BME280;64200;55.426;37.758;2023-07-20T02:35:19;98009.69;;;13.42;72.76
75617;BME280;64200;55.426;37.758;2023-07-20T02:40:20;98014.19;;;13.51;72.28
75617;BME280;64200;55.426;37.758;2023-07-20T02:45:20;98019.50;;;13.55;72.27
75617;BME280;64200;55.426;37.758;2023-07-20T02:50:22;98019.75;;;13.76;72.45
75617;BME280;64200;55.426;37.758;2023-07-20T02:55:22;98013.47;;;13.88;71.62
75617;BME280;64200;55.426;37.758;2023-07-20T03:00:23;98025.91;;;13.93;71.30
75617;BME280;64200;55.426;37.758;2023-07-20T03:05:23;98025.16;;;14.12;70.63
75617;BME280;64200;55.426;37.758;2023-07-20T03:10:25;98025.91;;;14.12;70.65
75617;BME280;64200;55.426;37.758;2023-07-20T03:15:26;98042.28;;;14.27;69.92
75617;BME280;64200;55.426;37.758;2023-07-20T03:20:26;98036.97;;;14.43;70.06
75617;BME280;64200;55.426;37.758;2023-07-20T03:25:26;98034.28;;;14.50;69.50
75617;BME280;64200;55.426;37.758;2023-07-20T03:30:27;98044.38;;;14.59;69.60
75617;BME280;64200;55.426;37.758;2023-07-20T03:35:30;98039.00;;;14.61;69.40
75617;BME280;64200;55.426;37.758;2023-07-20T03:40:31;98046.94;;;14.76;68.61
75617;BME280;64200;55.426;37.758;2023-07-20T03:45:31;98040.94;;;14.85;68.43
75617;BME280;64200;55.426;37.758;2023-07-20T03:50:32;98046.75;;;14.87;68.08
75617;BME280;64200;55.426;37.758;2023-07-20T03:55:33;98040.88;;;15.04;68.28
75617;BME280;64200;55.426;37.758;2023-07-20T04:00:34;98046.41;;;15.23;67.43
75617;BME280;64200;55.426;37.758;2023-07-20T04:05:35;98041.44;;;15.30;67.34
75617;BME280;64200;55.426;37.758;2023-07-20T04:10:35;98038.84;;;15.45;66.46
75617;BME280;64200;55.426;37.758;2023-07-20T04:15:36;98051.28;;;15.63;66.25
75617;BME280;64200;55.426;37.758;2023-07-20T04:20:36;98054.09;;;15.76;65.13
75617;BME280;64200;55.426;37.758;2023-07-20T04:25:39;98055.19;;;15.60;64.99
75617;BME280;64200;55.426;37.758;2023-07-20T04:30:40;98050.66;;;15.84;65.09
75617;BME280;64200;55.426;37.758;2023-07-20T04:35:49;98053.84;;;16.28;64.68
75617;BME280;64200;55.426;37.758;2023-07-20T04:40:50;98050.97;;;16.41;64.01
75617;BME280;64200;55.426;37.758;2023-07-20T04:45:50;98057.78;;;16.46;63.64
75617;BME280;64200;55.426;37.758;2023-07-20T04:50:51;98063.41;;;16.46;62.91
75617;BME280;64200;55.426;37.758;2023-07-20T04:55:51;98059.13;;;16.66;62.42
75617;BME280;64200;55.426;37.758;2023-07-20T05:00:53;98051.31;;;16.72;61.94
75617;BME280;64200;55.426;37.758;2023-07-20T05:05:53;98058.53;;;16.81;61.47
75617;BME280;64200;55.426;37.758;2023-07-20T05:10:54;98065.34;;;17.07;61.20
75617;BME280;64200;55.426;37.758;2023-07-20T05:15:55;98072.97;;;17.19;59.69
75617;BME280;64200;55.426;37.758;2023-07-20T05:20:56;98069.47;;;17.27;60.07
75617;BME280;64200;55.426;37.758;2023-07-20T05:25:58;98068.47;;;17.45;58.88
75617;BME280;64200;55.426;37.758;2023-07-20T05:30:59;98070.63;;;17.60;58.47
75617;BME280;64200;55.426;37.758;2023-07-20T05:36:00;98064.66;;;17.64;57.83
75617;BME280;64200;55.426;37.758;2023-07-20T05:41:00;98076.22;;;18.10;56.72
75617;BME280;64200;55.426;37.758;2023-07-20T05:46:02;98078.59;;;17.98;55.73
75617;BME280;64200;55.426;37.758;2023-07-20T05:51:02;98075.09;;;18.13;54.83
75617;BME280;64200;55.426;37.758;2023-07-20T05:56:03;98071.94;;;18.24;54.89
75617;BME280;64200;55.426;37.758;2023-07-20T06:01:04;98073.06;;;18.21;53.46
75617;BME280;64200;55.426;37.758;2023-07-20T06:06:06;98073.53;;;18.56;53.69
75617;BME280;64200;55.426;37.758;2023-07-20T06:11:10;98081.88;;;18.70;53.51
75617;BME280;64200;55.426;37.758;2023-07-20T06:16:11;98087.25;;;18.97;51.79
75617;BME280;64200;55.426;37.758;2023-07-20T06:21:11;98084.38;;;18.89;50.90
75617;BME280;64200;55.426;37.758;2023-07-20T06:26:12;98081.97;;;19.08;51.25
75617;BME280;64200;55.426;37.758;2023-07-20T06:31:12;98087.81;;;19.26;50.53
75617;BME280;64200;55.426;37.758;2023-07-20T06:36:15;98087.97;;;19.51;50.53
75617;BME280;64200;55.426;37.758;2023-07-20T06:41:16;98079.81;;;20.02;48.66
75617;BME280;64200;55.426;37.758;2023-07-20T06:46:16;98074.88;;;20.58;47.31
75617;BME280;64200;55.426;37.758;2023-07-20T06:51:17;98080.72;;;20.93;46.28
75617;BME280;64200;55.426;37.758;2023-07-20T06:56:18;98100.03;;;20.87;45.10
75617;BME280;64200;55.426;37.758;2023-07-20T07:01:18;98086.34;;;21.26;44.66
75617;BME280;64200;55.426;37.758;2023-07-20T07:06:21;98098.03;;;21.30;43.87
75617;BME280;64200;55.426;37.758;2023-07-20T07:11:22;98096.22;;;22.03;43.21
75617;BME280;64200;55.426;37.758;2023-07-20T07:16:23;98094.91;;;22.21;42.27
75617;BME280;64200;55.426;37.758;2023-07-20T07:21:24;98104.78;;;22.38;40.01
75617;BME280;64200;55.426;37.758;2023-07-20T07:26:26;98093.22;;;22.80;40.98
75617;BME280;64200;55.426;37.758;2023-07-20T07:31:28;98107.22;;;22.96;40.00
75617;BME280;64200;55.426;37.758;2023-07-20T07:36:29;98110.25;;;23.35;39.13
75617;BME280;64200;55.426;37.758;2023-07-20T07:41:29;98122.94;;;23.71;39.70
75617;BME280;64200;55.426;37.758;2023-07-20T07:46:30;98123.78;;;24.69;36.91
75617;BME280;64200;55.426;37.758;2023-07-20T07:51:30;98112.81;;;24.17;36.04
75617;BME280;64200;55.426;37.758;2023-07-20T07:56:31;98111.38;;;23.49;37.79
75617;BME280;64200;55.426;37.758;2023-07-20T08:01:31;98118.97;;;24.43;38.47
75617;BME280;64200;55.426;37.758;2023-07-20T08:06:32;98119.78;;;25.45;34.51
75617;BME280;64200;55.426;37.758;2023-07-20T08:11:32;98123.63;;;24.38;36.01
75617;BME280;64200;55.426;37.758;2023-07-20T08:16:33;98133.69;;;24.49;35.66
75617;BME280;64200;55.426;37.758;2023-07-20T08:21:34;98126.00;;;23.46;36.91
75617;BME280;64200;55.426;37.758;2023-07-20T08:26:35;98123.56;;;23.32;37.37
75617;BME280;64200;55.426;37.758;2023-07-20T08:31:35;98122.56;;;25.23;34.33
75617;BME280;64200;55.426;37.758;2023-07-20T08:36:36;98132.66;;;25.15;35.86
75617;BME280;64200;55.426;37.758;2023-07-20T08:41:37;98130.88;;;25.82;32.15
75617;BME280;64200;55.426;37.758;2023-07-20T08:46:40;98133.38;;;24.15;35.70
75617;BME280;64200;55.426;37.758;2023-07-20T08:51:41;98134.72;;;24.14;37.39
75617;BME280;64200;55.426;37.758;2023-07-20T08:56:42;98124.50;;;25.31;33.87
75617;BME280;64200;55.426;37.758;2023-07-20T09:01:46;98128.91;;;25.12;35.59
75617;BME280;64200;55.426;37.758;2023-07-20T09:06:49;98135.28;;;25.73;32.69
75617;BME280;64200;55.426;37.758;2023-07-20T09:11:50;98139.25;;;23.61;37.76
75617;BME280;64200;55.426;37.758;2023-07-20T09:16:53;98147.84;;;22.61;42.44
75617;BME280;64200;55.426;37.758;2023-07-20T09:21:54;98138.06;;;22.72;44.02
75617;BME280;64200;55.426;37.758;2023-07-20T09:26:55;98153.38;;;25.56;43.24
75617;BME280;64200;55.426;37.758;2023-07-20T09:32:03;98148.47;;;28.54;34.22
75617;BME280;64200;55.426;37.758;2023-07-20T09:37:04;98163.13;;;25.32;36.74
75617;BME280;64200;55.426;37.758;2023-07-20T09:42:05;98158.75;;;22.55;45.05
75617;BME280;64200;55.426;37.758;2023-07-20T09:47:06;98148.78;;;21.94;45.61
75617;BME280;64200;55.426;37.758;2023-07-20T09:52:11;98142.75;;;25.78;47.07
75617;BME280;64200;55.426;37.758;2023-07-20T09:57:11;98156.97;;;33.40;32.09
75617;BME280;64200;55.426;37.758;2023-07-20T10:02:21;98159.97;;;35.88;25.50
75617;BME280;64200;55.426;37.758;2023-07-20T10:07:27;98142.59;;;32.14;27.71
75617;BME280;64200;55.426;37.758;2023-07-20T10:12:29;98147.06;;;32.53;26.72
75617;BME280;64200;55.426;37.758;2023-07-20T10:17:31;98140.09;;;28.21;32.17
75617;BME280;64200;55.426;37.758;2023-07-20T10:22:35;98147.38;;;29.39;33.98
75617;BME280;64200;55.426;37.758;2023-07-20T10:27:36;98152.38;;;29.66;29.35
75617;BME280;64200;55.426;37.758;2023-07-20T10:32:40;98156.59;;;31.72;26.11
75617;BME280;64200;55.426;37.758;2023-07-20T10:37:52;98139.66;;;29.16;27.48
75617;BME280;64200;55.426;37.758;2023-07-20T10:43:11;98145.78;;;30.19;28.28
75617;BME280;64200;55.426;37.758;2023-07-20T10:48:22;98149.16;;;26.54;31.39
75617;BME280;64200;55.426;37.758;2023-07-20T10:53:23;98150.78;;;24.19;35.68
75617;BME280;64200;55.426;37.758;2023-07-20T10:58:23;98178.19;;;22.24;42.61
75617;BME280;64200;55.426;37.758;2023-07-20T11:03:36;98174.56;;;21.38;47.85
75617;BME280;64200;55.426;37.758;2023-07-20T11:08:43;98171.25;;;21.24;49.62
75617;BME280;64200;55.426;37.758;2023-07-20T11:14:02;98168.84;;;23.85;43.98
75617;BME280;64200;55.426;37.758;2023-07-20T11:19:04;98171.41;;;29.06;34.41
75617;BME280;64200;55.426;37.758;2023-07-20T11:24:06;98167.63;;;32.62;27.73
75617;BME280;64200;55.426;37.758;2023-07-20T11:29:07;98177.75;;;33.17;26.74
75617;BME280;64200;55.426;37.758;2023-07-20T11:34:12;98168.53;;;30.29;27.93
75617;BME280;64200;55.426;37.758;2023-07-20T11:39:15;98162.59;;;30.25;31.76
75617;BME280;64200;55.426;37.758;2023-07-20T11:44:20;98170.38;;;30.22;27.62
75617;BME280;64200;55.426;37.758;2023-07-20T11:49:27;98157.09;;;27.69;30.54
75617;BME280;64200;55.426;37.758;2023-07-20T11:54:27;98150.84;;;25.51;33.87
75617;BME280;64200;55.426;37.758;2023-07-20T11:59:28;98144.34;;;25.29;36.32
75617;BME280;64200;55.426;37.758;2023-07-20T12:04:31;98142.22;;;25.70;36.41
75617;BME280;64200;55.426;37.758;2023-07-20T12:09:31;98153.03;;;28.60;34.30
75617;BME280;64200;55.426;37.758;2023-07-20T12:14:32;98152.88;;;30.46;28.88
75617;BME280;64200;55.426;37.758;2023-07-20T12:19:38;98141.28;;;27.80;30.23
75617;BME280;64200;55.426;37.758;2023-07-20T12:24:40;98127.69;;;26.31;31.96
75617;BME280;64200;55.426;37.758;2023-07-20T12:29:40;98144.63;;;24.33;35.07
75617;BME280;64200;55.426;37.758;2023-07-20T12:34:41;98135.03;;;24.48;35.30
75617;BME280;64200;55.426;37.758;2023-07-20T12:39:41;98133.75;;;23.82;37.27
75617;BME280;64200;55.426;37.758;2023-07-20T12:44:44;98151.72;;;23.75;37.00
75617;BME280;64200;55.426;37.758;2023-07-20T12:49:45;98115.44;;;23.19;38.60
75617;BME280;64200;55.426;37.758;2023-07-20T12:54:46;98141.78;;;22.92;39.03
75617;BME280;64200;55.426;37.758;2023-07-20T12:59:47;98124.75;;;22.75;39.77
75617;BME280;64200;55.426;37.758;2023-07-20T13:04:47;98120.63;;;22.86;39.47
75617;BME280;64200;55.426;37.758;2023-07-20T13:09:48;98120.91;;;23.07;39.38
75617;BME280;64200;55.426;37.758;2023-07-20T13:14:48;98131.00;;;22.46;40.27
75617;BME280;64200;55.426;37.758;2023-07-20T13:19:49;98124.16;;;22.49;40.95
75617;BME280;64200;55.426;37.758;2023-07-20T13:24:50;98126.16;;;22.39;40.93
75617;BME280;64200;55.426;37.758;2023-07-20T13:29:52;98124.06;;;22.39;41.71
75617;BME280;64200;55.426;37.758;2023-07-20T13:34:53;98123.22;;;22.47;41.56
75617;BME280;64200;55.426;37.758;2023-07-20T13:39:54;98124.97;;;22.87;41.03
75617;BME280;64200;55.426;37.758;2023-07-20T13:44:54;98120.22;;;23.17;40.95
75617;BME280;64200;55.426;37.758;2023-07-20T13:49:55;98116.69;;;23.36;40.25
75617;BME280;64200;55.426;37.758;2023-07-20T13:54:56;98119.91;;;23.49;39.95
75617;BME280;64200;55.426;37.758;2023-07-20T13:59:56;98107.25;;;23.33;40.29
75617;BME280;64200;55.426;37.758;2023-07-20T14:04:57;98123.84;;;23.27;40.65
75617;BME280;64200;55.426;37.758;2023-07-20T14:09:57;98125.59;;;23.49;40.76
75617;BME280;64200;55.426;37.758;2023-07-20T14:14:59;98125.13;;;24.00;40.57
75617;BME280;64200;55.426;37.758;2023-07-20T14:20:00;98118.81;;;24.01;39.77
75617;BME280;64200;55.426;37.758;2023-07-20T14:25:00;98108.09;;;23.63;39.61
75617;BME280;64200;55.426;37.758;2023-07-20T14:30:01;98101.34;;;23.11;39.69
75617;BME280;64200;55.426;37.758;2023-07-20T14:35:01;98100.63;;;22.93;38.30
75617;BME280;64200;55.426;37.758;2023-07-20T14:40:02;98105.88;;;22.70;37.99
75617;BME280;64200;55.426;37.758;2023-07-20T14:45:05;98103.66;;;22.51;37.59
75617;BME280;64200;55.426;37.758;2023-07-20T14:50:06;98109.03;;;22.47;37.91
75617;BME280;64200;55.426;37.758;2023-07-20T14:55:07;98118.03;;;22.35;38.86
75617;BME280;64200;55.426;37.758;2023-07-20T15:00:08;98114.63;;;22.37;38.65
75617;BME280;64200;55.426;37.758;2023-07-20T15:05:10;98128.81;;;22.37;38.63
75617;BME280;64200;55.426;37.758;2023-07-20T15:10:12;98117.16;;;22.33;38.71
75617;BME280;64200;55.426;37.758;2023-07-20T15:15:14;98113.28;;;22.20;38.49
75617;BME280;64200;55.426;37.758;2023-07-20T15:20:15;98128.06;;;22.01;38.40
75617;BME280;64200;55.426;37.758;2023-07-20T15:25:16;98127.56;;;22.13;38.29
75617;BME280;64200;55.426;37.758;2023-07-20T15:30:17;98135.47;;;21.97;38.56
75617;BME280;64200;55.426;37.758;2023-07-20T15:35:18;98143.84;;;21.95;38.66
75617;BME280;64200;55.426;37.758;2023-07-20T15:40:18;98138.75;;;22.10;38.37
75617;BME280;64200;55.426;37.758;2023-07-20T15:45:21;98129.50;;;21.92;38.29
75617;BME280;64200;55.426;37.758;2023-07-20T15:50:22;98139.34;;;22.09;38.45
75617;BME280;64200;55.426;37.758;2023-07-20T15:55:23;98141.25;;;21.89;38.72
75617;BME280;64200;55.426;37.758;2023-07-20T16:00:23;98140.56;;;21.81;38.64
75617;BME280;64200;55.426;37.758;2023-07-20T16:05:24;98135.13;;;21.75;38.58
75617;BME280;64200;55.426;37.758;2023-07-20T16:10:25;98136.63;;;21.76;38.82
75617;BME280;64200;55.426;37.758;2023-07-20T16:15:26;98143.66;;;21.75;38.40
75617;BME280;64200;55.426;37.758;2023-07-20T16:20:26;98141.00;;;21.95;38.31
75617;BME280;64200;55.426;37.758;2023-07-20T16:25:27;98145.09;;;21.84;38.09
75617;BME280;64200;55.426;37.758;2023-07-20T16:30:28;98153.09;;;21.52;37.67
75617;BME280;64200;55.426;37.758;2023-07-20T16:35:28;98163.31;;;21.48;37.41
75617;BME280;64200;55.426;37.758;2023-07-20T16:40:29;98159.50;;;21.28;37.68
75617;BME280;64200;55.426;37.758;2023-07-20T16:45:32;98170.19;;;21.12;37.93
75617;BME280;64200;55.426;37.758;2023-07-20T16:50:33;98167.25;;;20.94;38.25
75617;BME280;64200;55.426;37.758;2023-07-20T16:55:34;98199.81;;;20.85;38.63
75617;BME280;64200;55.426;37.758;2023-07-20T17:00:34;98190.41;;;20.75;38.93
75617;BME280;64200;55.426;37.758;2023-07-20T17:05:35;98200.78;;;20.65;39.45
75617;BME280;64200;55.426;37.758;2023-07-20T17:10:36;98214.06;;;20.62;39.52
75617;BME280;64200;55.426;37.758;2023-07-20T17:15:37;98214.63;;;20.53;39.80
75617;BME280;64200;55.426;37.758;2023-07-20T17:20:39;98221.06;;;20.46;40.09
75617;BME280;64200;55.426;37.758;2023-07-20T17:25:46;98222.06;;;20.25;41.02
75617;BME280;64200;55.426;37.758;2023-07-20T17:31:05;98214.91;;;20.09;41.02
75617;BME280;64200;55.426;37.758;2023-07-20T17:36:06;98198.69;;;19.94;42.06
75617;BME280;64200;55.426;37.758;2023-07-20T17:41:06;98205.66;;;19.85;41.78
75617;BME280;64200;55.426;37.758;2023-07-20T17:46:07;98200.94;;;19.72;43.26
75617;BME280;64200;55.426;37.758;2023-07-20T17:51:07;98210.53;;;19.61;42.82
75617;BME280;64200;55.426;37.758;2023-07-20T17:56:08;98205.84;;;19.48;43.07
75617;BME280;64200;55.426;37.758;2023-07-20T18:01:09;98216.94;;;19.39;43.35
75617;BME280;64200;55.426;37.758;2023-07-20T18:06:09;98222.94;;;19.27;44.19
75617;BME280;64200;55.426;37.758;2023-07-20T18:11:10;98223.31;;;19.16;44.34
75617;BME280;64200;55.426;37.758;2023-07-20T18:16:10;98214.81;;;19.08;44.01
75617;BME280;64200;55.426;37.758;2023-07-20T18:21:11;98207.22;;;18.95;44.91
75617;BME280;64200;55.426;37.758;2023-07-20T18:26:12;98198.91;;;18.90;44.88
75617;BME280;64200;55.426;37.758;2023-07-20T18:31:13;98196.59;;;18.81;45.32
75617;BME280;64200;55.426;37.758;2023-07-20T18:36:13;98197.13;;;18.71;45.19
75617;BME280;64200;55.426;37.758;2023-07-20T18:41:14;98194.63;;;18.60;45.79
75617;BME280;64200;55.426;37.758;2023-07-20T18:46:16;98204.75;;;18.48;46.14
75617;BME280;64200;55.426;37.758;2023-07-20T18:51:22;98209.19;;;18.35;46.65
75617;BME280;64200;55.426;37.758;2023-07-20T18:56:22;98211.88;;;18.12;47.70
75617;BME280;64200;55.426;37.758;2023-07-20T19:01:23;98217.19;;;17.95;48.50
75617;BME280;64200;55.426;37.758;2023-07-20T19:06:24;98224.56;;;17.77;48.95
75617;BME280;64200;55.426;37.758;2023-07-20T19:11:24;98233.28;;;17.65;49.80
75617;BME280;64200;55.426;37.758;2023-07-20T19:16:25;98229.72;;;17.65;49.81
75617;BME280;64200;55.426;37.758;2023-07-20T19:21:27;98214.09;;;17.43;50.49
75617;BME280;64200;55.426;37.758;2023-07-20T19:26:28;98223.44;;;17.37;50.67
75617;BME280;64200;55.426;37.758;2023-07-20T19:31:28;98229.69;;;17.23;51.62
75617;BME280;64200;55.426;37.758;2023-07-20T19:36:29;98221.63;;;17.06;52.21
75617;BME280;64200;55.426;37.758;2023-07-20T19:41:30;98230.38;;;17.02;52.37
75617;BME280;64200;55.426;37.758;2023-07-20T19:46:30;98233.47;;;16.91;52.81
75617;BME280;64200;55.426;37.758;2023-07-20T19:51:31;98237.00;;;17.05;52.26
75617;BME280;64200;55.426;37.758;2023-07-20T19:56:32;98233.88;;;16.95;52.77
75617;BME280;64200;55.426;37.758;2023-07-20T20:01:34;98241.69;;;16.75;53.68
75617;BME280;64200;55.426;37.758;2023-07-20T20:06:35;98243.88;;;16.42;54.82
75617;BME280;64200;55.426;37.758;2023-07-20T20:11:35;98255.22;;;16.23;55.89
75617;BME280;64200;55.426;37.758;2023-07-20T20:16:37;98246.78;;;16.10;56.43
75617;BME280;64200;55.426;37.758;2023-07-20T20:21:40;98245.16;;;16.14;56.45
75617;BME280;64200;55.426;37.758;2023-07-20T20:26:41;98250.25;;;16.16;56.38
75617;BME280;64200;55.426;37.758;2023-07-20T20:31:41;98245.88;;;16.02;56.87
75617;BME280;64200;55.426;37.758;2023-07-20T20:36:42;98243.28;;;15.90;57.22
75617;BME280;64200;55.426;37.758;2023-07-20T20:41:43;98251.09;;;15.97;57.11
75617;BME280;64200;55.426;37.758;2023-07-20T20:46:50;98256.91;;;15.86;57.79
75617;BME280;64200;55.426;37.758;2023-07-20T20:51:50;98260.34;;;15.79;58.22
75617;BME280;64200;55.426;37.758;2023-07-20T20:56:51;98251.66;;;15.77;58.12
75617;BME280;64200;55.426;37.758;2023-07-20T21:01:52;98250.16;;;15.76;58.55
75617;BME280;64200;55.426;37.758;2023-07-20T21:06:52;98262.88;;;15.63;59.53
75617;BME280;64200;55.426;37.758;2023-07-20T21:11:53;98267.59;;;15.55;59.67
75617;BME280;64200;55.426;37.758;2023-07-20T21:16:53;98277.41;;;15.49;60.19
75617;BME280;64200;55.426;37.758;2023-07-20T21:21:54;98268.00;;;15.46;59.87
75617;BME280;64200;55.426;37.758;2023-07-20T21:26:55;98277.34;;;15.35;60.58
75617;BME280;64200;55.426;37.758;2023-07-20T21:31:55;98285.06;;;15.48;60.33
75617;BME280;64200;55.426;37.758;2023-07-20T21:36:56;98274.06;;;15.50;60.44
75617;BME280;64200;55.426;37.758;2023-07-20T21:41:56;98285.84;;;15.49;60.84
75617;BME280;64200;55.426;37.758;2023-07-20T21:46:57;98280.69;;;15.34;61.45
75617;BME280;64200;55.426;37.758;2023-07-20T21:51:58;98288.06;;;15.37;61.28
75617;BME280;64200;55.426;37.758;2023-07-20T21:56:58;98279.63;;;15.37;61.42
75617;BME280;64200;55.426;37.758;2023-07-20T22:01:59;98273.94;;;15.23;62.03
75617;BME280;64200;55.426;37.758;2023-07-20T22:07:00;98274.09;;;15.31;61.67
75617;BME280;64200;55.426;37.758;2023-07-20T22:12:00;98272.28;;;15.34;61.53
75617;BME280;64200;55.426;37.758;2023-07-20T22:17:01;98273.69;;;15.21;62.24
75617;BME280;64200;55.426;37.758;2023-07-20T22:22:03;98282.59;;;15.25;62.11
75617;BME280;64200;55.426;37.758;2023-07-20T22:27:06;98287.59;;;15.33;61.80
75617;BME280;64200;55.426;37.758;2023-07-20T22:32:09;98279.63;;;15.37;61.46
75617;BME280;64200;55.426;37.758;2023-07-20T22:37:10;98277.44;;;15.30;61.68
75617;BME280;64200;55.426;37.758;2023-07-20T22:42:11;98279.38;;;15.35;61.63
75617;BME280;64200;55.426;37.758;2023-07-20T22:47:12;98282.53;;;15.31;61.98
75617;BME280;64200;55.426;37.758;2023-07-20T22:52:12;98270.38;;;15.23;62.07
75617;BME280;64200;55.426;37.758;2023-07-20T22:57:13;98274.31;;;15.14;62.43
75617;BME280;64200;55.426;37.758;2023-07-20T23:02:14;98276.97;;;15.06;63.24
75617;BME280;64200;55.426;37.758;2023-07-20T23:07:15;98276.81;;;14.80;64.09
75617;BME280;64200;55.426;37.758;2023-07-20T23:12:15;98274.59;;;14.72;64.45
75617;BME280;64200;55.426;37.758;2023-07-20T23:17:16;98269.97;;;14.75;64.26
75617;BME280;64200;55.426;37.758;2023-07-20T23:22:16;98272.13;;;14.88;63.74
75617;BME280;64200;55.426;37.758;2023-07-20T23:27:18;98276.34;;;14.75;64.36
75617;BME280;64200;55.426;37.758;2023-07-20T23:32:19;98270.50;;;14.73;64.45
75617;BME280;64200;55.426;37.758;2023-07-20T23:37:19;98268.59;;;14.82;64.08
75617;BME280;64200;55.426;37.758;2023-07-20T23:42:20;98271.78;;;14.72;64.13
75617;BME280;64200;55.426;37.758;2023-07-20T23:47:20;98263.88;;;14.46;65.52
75617;BME280;64200;55.426;37.758;2023-07-20T23:52:23;98261.44;;;14.37;65.65
75617;BME280;64200;55.426;37.758;2023-07-20T23:57:24;98257.63;;;14.34;66.08
